sensor_id;sensor_type;location;lat;lon;timestamp;P1;durP1;ratioP1;P2;durP2;ratioP2
24901;SDS011;31328;51.402;0.016;2022-12-29T00:00:01;13.83;;;2.10;;
24901;SDS011;31328;51.402;0.016;2022-12-29T00:02:38;17.53;;;3.00;;
24901;SDS011;31328;51.402;0.016;2022-12-29T00:05:05;11.70;;;2.07;;
24901;SDS011;31328;51.402;0.016;2022-12-29T00:07:31;17.43;;;3.83;;
24901;SDS011;31328;51.402;0.016;2022-12-29T00:09:57;13.80;;;2.50;;
24901;SDS011;31328;51.402;0.016;2022-12-29T00:12:24;14.73;;;3.10;;
24901;SDS011;31328;51.402;0.016;2022-12-29T00:14:50;15.20;;;3.27;;
24901;SDS011;31328;51.402;0.016;2022-12-29T00:20:01;15.17;;;3.47;;
24901;SDS011;31328;51.402;0.016;2022-12-29T00:22:47;8.33;;;1.87;;
24901;SDS011;31328;51.402;0.016;2022-12-29T00:25:31;8.98;;;2.45;;
24901;SDS011;31328;51.402;0.016;2022-12-29T00:31:01;12.23;;;2.70;;
24901;SDS011;31328;51.402;0.016;2022-12-29T00:36:51;6.70;;;1.80;;
24901;SDS011;31328;51.402;0.016;2022-12-29T00:39:17;14.53;;;2.00;;
24901;SDS011;31328;51.402;0.016;2022-12-29T00:42:04;7.07;;;1.70;;
24901;SDS011;31328;51.402;0.016;2022-12-29T00:44:49;11.43;;;1.70;;
24901;SDS011;31328;51.402;0.016;2022-12-29T00:47:16;9.80;;;2.60;;
24901;SDS011;31328;51.402;0.016;2022-12-29T00:49:42;13.87;;;2.20;;
24901;SDS011;31328;51.402;0.016;2022-12-29T00:52:09;10.00;;;3.20;;
24901;SDS011;31328;51.402;0.016;2022-12-29T00:54:37;10.77;;;2.17;;
24901;SDS011;31328;51.402;0.016;2022-12-29T00:57:06;13.73;;;2.97;;
24901;SDS011;31328;51.402;0.016;2022-12-29T00:59:35;14.20;;;2.77;;
24901;SDS011;31328;51.402;0.016;2022-12-29T01:02:02;12.37;;;3.17;;
24901;SDS011;31328;51.402;0.016;2022-12-29T01:04:28;14.37;;;2.83;;
24901;SDS011;31328;51.402;0.016;2022-12-29T01:06:54;9.00;;;3.17;;
24901;SDS011;31328;51.402;0.016;2022-12-29T01:09:21;15.37;;;2.87;;
24901;SDS011;31328;51.402;0.016;2022-12-29T01:12:07;17.37;;;2.60;;
24901;SDS011;31328;51.402;0.016;2022-12-29T01:14:34;12.23;;;3.37;;
24901;SDS011;31328;51.402;0.016;2022-12-29T01:17:02;12.33;;;2.67;;
24901;SDS011;31328;51.402;0.016;2022-12-29T01:19:30;16.60;;;3.43;;
24901;SDS011;31328;51.402;0.016;2022-12-29T01:21:56;12.47;;;2.10;;
24901;SDS011;31328;51.402;0.016;2022-12-29T01:24:23;14.23;;;3.40;;
24901;SDS011;31328;51.402;0.016;2022-12-29T01:26:51;14.33;;;2.57;;
24901;SDS011;31328;51.402;0.016;2022-12-29T01:29:17;16.57;;;3.03;;
24901;SDS011;31328;51.402;0.016;2022-12-29T01:31:45;11.83;;;2.67;;
24901;SDS011;31328;51.402;0.016;2022-12-29T01:34:12;20.70;;;4.73;;
24901;SDS011;31328;51.402;0.016;2022-12-29T01:36:38;13.03;;;2.53;;
24901;SDS011;31328;51.402;0.016;2022-12-29T01:39:05;14.87;;;2.70;;
24901;SDS011;31328;51.402;0.016;2022-12-29T01:41:31;17.60;;;4.10;;
24901;SDS011;31328;51.402;0.016;2022-12-29T01:43:58;22.87;;;3.40;;
24901;SDS011;31328;51.402;0.016;2022-12-29T01:49:13;10.93;;;3.20;;
24901;SDS011;31328;51.402;0.016;2022-12-29T01:51:50;12.37;;;2.47;;
24901;SDS011;31328;51.402;0.016;2022-12-29T01:54:28;12.13;;;2.97;;
24901;SDS011;31328;51.402;0.016;2022-12-29T01:57:05;22.40;;;3.73;;
24901;SDS011;31328;51.402;0.016;2022-12-29T01:59:41;8.45;;;2.85;;
24901;SDS011;31328;51.402;0.016;2022-12-29T02:02:15;13.97;;;3.27;;
24901;SDS011;31328;51.402;0.016;2022-12-29T02:04:42;14.43;;;3.27;;
24901;SDS011;31328;51.402;0.016;2022-12-29T02:07:18;9.13;;;2.70;;
24901;SDS011;31328;51.402;0.016;2022-12-29T02:09:46;15.17;;;2.60;;
24901;SDS011;31328;51.402;0.016;2022-12-29T02:12:15;14.90;;;2.80;;
24901;SDS011;31328;51.402;0.016;2022-12-29T02:14:43;15.37;;;3.33;;
24901;SDS011;31328;51.402;0.016;2022-12-29T02:20:04;11.53;;;2.07;;
24901;SDS011;31328;51.402;0.016;2022-12-29T02:31:18;11.57;;;3.10;;
24901;SDS011;31328;51.402;0.016;2022-12-29T02:33:57;16.97;;;3.27;;
24901;SDS011;31328;51.402;0.016;2022-12-29T02:36:45;19.15;;;4.25;;
24901;SDS011;31328;51.402;0.016;2022-12-29T02:39:38;12.60;;;2.50;;
24901;SDS011;31328;51.402;0.016;2022-12-29T02:42:21;12.17;;;3.70;;
24901;SDS011;31328;51.402;0.016;2022-12-29T02:45:07;18.73;;;3.53;;
24901;SDS011;31328;51.402;0.016;2022-12-29T02:48:07;25.27;;;3.33;;
24901;SDS011;31328;51.402;0.016;2022-12-29T02:50:48;16.87;;;3.30;;
24901;SDS011;31328;51.402;0.016;2022-12-29T02:53:23;18.37;;;3.43;;
24901;SDS011;31328;51.402;0.016;2022-12-29T02:56:09;16.90;;;3.37;;
24901;SDS011;31328;51.402;0.016;2022-12-29T02:58:36;17.57;;;3.93;;
24901;SDS011;31328;51.402;0.016;2022-12-29T03:07:07;16.03;;;3.43;;
24901;SDS011;31328;51.402;0.016;2022-12-29T03:14:55;17.70;;;4.73;;
24901;SDS011;31328;51.402;0.016;2022-12-29T03:17:51;16.53;;;3.20;;
24901;SDS011;31328;51.402;0.016;2022-12-29T03:20:24;13.17;;;2.93;;
24901;SDS011;31328;51.402;0.016;2022-12-29T03:25:42;14.53;;;2.97;;
24901;SDS011;31328;51.402;0.016;2022-12-29T03:28:23;18.53;;;3.43;;
24901;SDS011;31328;51.402;0.016;2022-12-29T03:30:57;16.50;;;3.17;;
24901;SDS011;31328;51.402;0.016;2022-12-29T03:33:25;19.47;;;3.83;;
24901;SDS011;31328;51.402;0.016;2022-12-29T03:35:58;19.43;;;4.73;;
24901;SDS011;31328;51.402;0.016;2022-12-29T03:41:07;19.07;;;3.60;;
24901;SDS011;31328;51.402;0.016;2022-12-29T03:43:36;13.33;;;2.80;;
24901;SDS011;31328;51.402;0.016;2022-12-29T03:46:03;12.27;;;3.03;;
24901;SDS011;31328;51.402;0.016;2022-12-29T03:48:29;23.67;;;3.80;;
24901;SDS011;31328;51.402;0.016;2022-12-29T03:50:56;16.37;;;2.93;;
24901;SDS011;31328;51.402;0.016;2022-12-29T03:53:22;18.30;;;4.23;;
24901;SDS011;31328;51.402;0.016;2022-12-29T03:55:49;21.67;;;3.77;;
24901;SDS011;31328;51.402;0.016;2022-12-29T03:58:16;18.70;;;3.37;;
24901;SDS011;31328;51.402;0.016;2022-12-29T04:00:59;14.70;;;4.67;;
24901;SDS011;31328;51.402;0.016;2022-12-29T04:03:26;13.53;;;3.37;;
24901;SDS011;31328;51.402;0.016;2022-12-29T04:05:52;19.50;;;4.20;;
24901;SDS011;31328;51.402;0.016;2022-12-29T04:08:18;16.90;;;4.30;;
24901;SDS011;31328;51.402;0.016;2022-12-29T04:10:45;15.30;;;4.23;;
24901;SDS011;31328;51.402;0.016;2022-12-29T04:13:13;14.63;;;3.47;;
24901;SDS011;31328;51.402;0.016;2022-12-29T04:15:39;12.43;;;3.33;;
24901;SDS011;31328;51.402;0.016;2022-12-29T04:18:08;14.00;;;3.23;;
24901;SDS011;31328;51.402;0.016;2022-12-29T04:20:34;14.43;;;3.60;;
24901;SDS011;31328;51.402;0.016;2022-12-29T04:23:19;13.57;;;3.15;;
24901;SDS011;31328;51.402;0.016;2022-12-29T04:25:45;26.10;;;5.33;;
24901;SDS011;31328;51.402;0.016;2022-12-29T04:28:15;17.57;;;4.13;;
24901;SDS011;31328;51.402;0.016;2022-12-29T04:30:44;20.90;;;4.20;;
24901;SDS011;31328;51.402;0.016;2022-12-29T04:33:21;13.37;;;4.30;;
24901;SDS011;31328;51.402;0.016;2022-12-29T04:35:48;15.23;;;3.47;;
24901;SDS011;31328;51.402;0.016;2022-12-29T04:38:15;21.03;;;4.77;;
24901;SDS011;31328;51.402;0.016;2022-12-29T04:40:42;16.60;;;3.23;;
24901;SDS011;31328;51.402;0.016;2022-12-29T04:43:10;14.90;;;3.93;;
24901;SDS011;31328;51.402;0.016;2022-12-29T04:45:55;13.77;;;2.60;;
24901;SDS011;31328;51.402;0.016;2022-12-29T04:48:35;15.73;;;2.90;;
24901;SDS011;31328;51.402;0.016;2022-12-29T04:51:12;12.43;;;3.17;;
24901;SDS011;31328;51.402;0.016;2022-12-29T04:53:39;13.20;;;3.47;;
24901;SDS011;31328;51.402;0.016;2022-12-29T04:56:05;15.30;;;2.77;;
24901;SDS011;31328;51.402;0.016;2022-12-29T04:58:32;15.03;;;3.43;;
24901;SDS011;31328;51.402;0.016;2022-12-29T05:00:59;15.87;;;3.50;;
24901;SDS011;31328;51.402;0.016;2022-12-29T05:03:28;17.40;;;3.77;;
24901;SDS011;31328;51.402;0.016;2022-12-29T05:05:55;15.90;;;2.73;;
24901;SDS011;31328;51.402;0.016;2022-12-29T05:08:23;11.70;;;3.27;;
24901;SDS011;31328;51.402;0.016;2022-12-29T05:10:50;12.93;;;3.53;;
24901;SDS011;31328;51.402;0.016;2022-12-29T05:13:17;16.80;;;3.70;;
24901;SDS011;31328;51.402;0.016;2022-12-29T05:15:53;12.30;;;3.30;;
24901;SDS011;31328;51.402;0.016;2022-12-29T05:18:22;13.20;;;4.13;;
24901;SDS011;31328;51.402;0.016;2022-12-29T05:20:49;15.03;;;3.33;;
24901;SDS011;31328;51.402;0.016;2022-12-29T05:23:16;12.33;;;3.00;;
24901;SDS011;31328;51.402;0.016;2022-12-29T05:25:45;12.30;;;2.57;;
24901;SDS011;31328;51.402;0.016;2022-12-29T05:28:20;11.80;;;2.90;;
24901;SDS011;31328;51.402;0.016;2022-12-29T05:31:06;17.97;;;4.63;;
24901;SDS011;31328;51.402;0.016;2022-12-29T05:33:33;14.67;;;3.20;;
24901;SDS011;31328;51.402;0.016;2022-12-29T05:36:03;16.83;;;4.20;;
24901;SDS011;31328;51.402;0.016;2022-12-29T05:38:30;10.30;;;3.20;;
24901;SDS011;31328;51.402;0.016;2022-12-29T05:40:57;15.33;;;4.53;;
24901;SDS011;31328;51.402;0.016;2022-12-29T05:43:45;16.83;;;3.50;;
24901;SDS011;31328;51.402;0.016;2022-12-29T05:46:29;16.47;;;3.13;;
24901;SDS011;31328;51.402;0.016;2022-12-29T05:49:22;17.13;;;3.60;;
24901;SDS011;31328;51.402;0.016;2022-12-29T05:52:23;12.93;;;2.17;;
24901;SDS011;31328;51.402;0.016;2022-12-29T05:54:49;13.00;;;2.53;;
24901;SDS011;31328;51.402;0.016;2022-12-29T05:57:19;16.57;;;2.97;;
24901;SDS011;31328;51.402;0.016;2022-12-29T05:59:53;8.00;;;2.20;;
24901;SDS011;31328;51.402;0.016;2022-12-29T06:02:20;16.20;;;3.07;;
24901;SDS011;31328;51.402;0.016;2022-12-29T06:04:47;7.47;;;2.40;;
24901;SDS011;31328;51.402;0.016;2022-12-29T06:07:13;13.17;;;2.60;;
24901;SDS011;31328;51.402;0.016;2022-12-29T06:09:43;6.20;;;1.47;;
24901;SDS011;31328;51.402;0.016;2022-12-29T06:12:09;14.73;;;3.97;;
24901;SDS011;31328;51.402;0.016;2022-12-29T06:14:38;10.50;;;3.03;;
24901;SDS011;31328;51.402;0.016;2022-12-29T06:17:05;18.73;;;3.57;;
24901;SDS011;31328;51.402;0.016;2022-12-29T06:19:33;4.90;;;1.53;;
24901;SDS011;31328;51.402;0.016;2022-12-29T06:21:59;7.50;;;1.63;;
24901;SDS011;31328;51.402;0.016;2022-12-29T06:24:27;5.87;;;2.03;;
24901;SDS011;31328;51.402;0.016;2022-12-29T06:26:54;6.47;;;1.10;;
24901;SDS011;31328;51.402;0.016;2022-12-29T06:29:21;3.90;;;0.93;;
24901;SDS011;31328;51.402;0.016;2022-12-29T06:31:47;5.03;;;0.77;;
24901;SDS011;31328;51.402;0.016;2022-12-29T06:34:14;4.83;;;1.13;;
24901;SDS011;31328;51.402;0.016;2022-12-29T06:36:41;7.17;;;1.50;;
24901;SDS011;31328;51.402;0.016;2022-12-29T06:39:07;6.90;;;1.27;;
24901;SDS011;31328;51.402;0.016;2022-12-29T06:41:34;4.67;;;1.00;;
24901;SDS011;31328;51.402;0.016;2022-12-29T06:44:21;3.50;;;1.20;;
24901;SDS011;31328;51.402;0.016;2022-12-29T06:46:56;7.97;;;1.50;;
24901;SDS011;31328;51.402;0.016;2022-12-29T06:49:23;4.93;;;0.67;;
24901;SDS011;31328;51.402;0.016;2022-12-29T06:51:49;3.70;;;1.27;;
24901;SDS011;31328;51.402;0.016;2022-12-29T06:54:15;4.03;;;0.97;;
24901;SDS011;31328;51.402;0.016;2022-12-29T06:56:42;2.60;;;0.80;;
24901;SDS011;31328;51.402;0.016;2022-12-29T06:59:09;5.17;;;1.40;;
24901;SDS011;31328;51.402;0.016;2022-12-29T07:01:35;2.67;;;1.40;;
24901;SDS011;31328;51.402;0.016;2022-12-29T07:04:02;3.33;;;0.90;;
24901;SDS011;31328;51.402;0.016;2022-12-29T07:06:29;3.83;;;1.07;;
24901;SDS011;31328;51.402;0.016;2022-12-29T07:08:55;3.17;;;0.50;;
24901;SDS011;31328;51.402;0.016;2022-12-29T07:11:23;4.77;;;0.70;;
24901;SDS011;31328;51.402;0.016;2022-12-29T07:13:49;4.30;;;0.67;;
24901;SDS011;31328;51.402;0.016;2022-12-29T07:16:16;4.60;;;0.53;;
24901;SDS011;31328;51.402;0.016;2022-12-29T07:18:42;5.07;;;0.60;;
24901;SDS011;31328;51.402;0.016;2022-12-29T07:21:09;4.27;;;0.50;;
24901;SDS011;31328;51.402;0.016;2022-12-29T07:23:35;3.63;;;0.70;;
24901;SDS011;31328;51.402;0.016;2022-12-29T07:26:02;1.73;;;0.37;;
24901;SDS011;31328;51.402;0.016;2022-12-29T07:28:30;1.87;;;0.60;;
24901;SDS011;31328;51.402;0.016;2022-12-29T07:30:58;4.97;;;0.83;;
24901;SDS011;31328;51.402;0.016;2022-12-29T07:33:24;5.37;;;1.43;;
24901;SDS011;31328;51.402;0.016;2022-12-29T07:35:51;3.37;;;0.93;;
24901;SDS011;31328;51.402;0.016;2022-12-29T07:38:17;3.57;;;0.90;;
24901;SDS011;31328;51.402;0.016;2022-12-29T07:40:44;3.77;;;0.70;;
24901;SDS011;31328;51.402;0.016;2022-12-29T07:43:10;3.50;;;0.70;;
24901;SDS011;31328;51.402;0.016;2022-12-29T07:45:42;2.30;;;0.83;;
24901;SDS011;31328;51.402;0.016;2022-12-29T07:48:09;1.23;;;0.40;;
24901;SDS011;31328;51.402;0.016;2022-12-29T07:50:35;1.20;;;0.80;;
24901;SDS011;31328;51.402;0.016;2022-12-29T07:53:02;1.67;;;0.40;;
24901;SDS011;31328;51.402;0.016;2022-12-29T07:55:29;1.90;;;0.80;;
24901;SDS011;31328;51.402;0.016;2022-12-29T07:57:55;3.33;;;0.80;;
24901;SDS011;31328;51.402;0.016;2022-12-29T08:00:22;2.63;;;0.60;;
24901;SDS011;31328;51.402;0.016;2022-12-29T08:02:48;5.37;;;0.60;;
24901;SDS011;31328;51.402;0.016;2022-12-29T08:05:15;1.87;;;0.90;;
24901;SDS011;31328;51.402;0.016;2022-12-29T08:07:42;5.93;;;0.93;;
24901;SDS011;31328;51.402;0.016;2022-12-29T08:10:10;4.40;;;0.60;;
24901;SDS011;31328;51.402;0.016;2022-12-29T08:12:37;3.47;;;0.77;;
24901;SDS011;31328;51.402;0.016;2022-12-29T08:15:05;4.23;;;0.80;;
24901;SDS011;31328;51.402;0.016;2022-12-29T08:17:32;7.23;;;0.70;;
24901;SDS011;31328;51.402;0.016;2022-12-29T08:19:58;2.00;;;0.50;;
24901;SDS011;31328;51.402;0.016;2022-12-29T08:22:25;3.57;;;0.90;;
24901;SDS011;31328;51.402;0.016;2022-12-29T08:24:51;4.70;;;1.20;;
24901;SDS011;31328;51.402;0.016;2022-12-29T08:27:17;3.47;;;0.77;;
24901;SDS011;31328;51.402;0.016;2022-12-29T08:29:44;5.50;;;0.67;;
24901;SDS011;31328;51.402;0.016;2022-12-29T08:32:10;5.20;;;0.87;;
24901;SDS011;31328;51.402;0.016;2022-12-29T08:34:37;5.37;;;0.60;;
24901;SDS011;31328;51.402;0.016;2022-12-29T08:37:04;3.70;;;0.43;;
24901;SDS011;31328;51.402;0.016;2022-12-29T08:39:30;3.23;;;1.50;;
24901;SDS011;31328;51.402;0.016;2022-12-29T08:41:56;2.80;;;0.90;;
24901;SDS011;31328;51.402;0.016;2022-12-29T08:44:23;5.37;;;0.67;;
24901;SDS011;31328;51.402;0.016;2022-12-29T08:46:49;2.93;;;0.50;;
24901;SDS011;31328;51.402;0.016;2022-12-29T08:49:15;5.17;;;0.93;;
24901;SDS011;31328;51.402;0.016;2022-12-29T08:51:42;3.40;;;0.60;;
24901;SDS011;31328;51.402;0.016;2022-12-29T08:54:08;4.80;;;0.50;;
24901;SDS011;31328;51.402;0.016;2022-12-29T08:56:35;3.50;;;0.60;;
24901;SDS011;31328;51.402;0.016;2022-12-29T08:59:01;5.00;;;0.67;;
24901;SDS011;31328;51.402;0.016;2022-12-29T09:01:30;6.00;;;0.60;;
24901;SDS011;31328;51.402;0.016;2022-12-29T09:03:56;3.80;;;0.87;;
24901;SDS011;31328;51.402;0.016;2022-12-29T09:06:22;4.33;;;0.50;;
24901;SDS011;31328;51.402;0.016;2022-12-29T09:08:49;2.60;;;0.60;;
24901;SDS011;31328;51.402;0.016;2022-12-29T09:11:19;6.83;;;1.40;;
24901;SDS011;31328;51.402;0.016;2022-12-29T09:13:47;6.07;;;0.90;;
24901;SDS011;31328;51.402;0.016;2022-12-29T09:16:14;1.90;;;0.50;;
24901;SDS011;31328;51.402;0.016;2022-12-29T09:18:42;5.63;;;0.87;;
24901;SDS011;31328;51.402;0.016;2022-12-29T09:21:09;3.57;;;0.73;;
24901;SDS011;31328;51.402;0.016;2022-12-29T09:23:37;3.23;;;0.60;;
24901;SDS011;31328;51.402;0.016;2022-12-29T09:26:04;3.43;;;1.00;;
24901;SDS011;31328;51.402;0.016;2022-12-29T09:28:30;5.00;;;0.87;;
24901;SDS011;31328;51.402;0.016;2022-12-29T09:30:57;4.00;;;0.80;;
24901;SDS011;31328;51.402;0.016;2022-12-29T09:33:23;6.10;;;0.67;;
24901;SDS011;31328;51.402;0.016;2022-12-29T09:35:51;4.03;;;0.60;;
24901;SDS011;31328;51.402;0.016;2022-12-29T09:38:19;6.50;;;0.80;;
24901;SDS011;31328;51.402;0.016;2022-12-29T09:40:53;1.83;;;0.83;;
24901;SDS011;31328;51.402;0.016;2022-12-29T09:49:00;6.33;;;1.10;;
24901;SDS011;31328;51.402;0.016;2022-12-29T09:51:49;3.35;;;1.02;;
24901;SDS011;31328;51.402;0.016;2022-12-29T09:57:17;2.53;;;0.70;;
24901;SDS011;31328;51.402;0.016;2022-12-29T09:59:50;3.80;;;0.83;;
24901;SDS011;31328;51.402;0.016;2022-12-29T10:24:54;4.37;;;0.70;;
24901;SDS011;31328;51.402;0.016;2022-12-29T10:27:22;4.27;;;0.60;;
24901;SDS011;31328;51.402;0.016;2022-12-29T10:29:56;3.97;;;0.67;;
24901;SDS011;31328;51.402;0.016;2022-12-29T10:32:38;4.37;;;0.80;;
24901;SDS011;31328;51.402;0.016;2022-12-29T10:35:26;4.30;;;0.70;;
24901;SDS011;31328;51.402;0.016;2022-12-29T10:37:59;4.43;;;1.07;;
24901;SDS011;31328;51.402;0.016;2022-12-29T10:43:27;1.90;;;0.40;;
24901;SDS011;31328;51.402;0.016;2022-12-29T10:46:02;1.90;;;0.93;;
24901;SDS011;31328;51.402;0.016;2022-12-29T10:48:33;5.50;;;0.70;;
24901;SDS011;31328;51.402;0.016;2022-12-29T10:51:01;3.17;;;0.40;;
24901;SDS011;31328;51.402;0.016;2022-12-29T10:53:35;1.80;;;0.50;;
24901;SDS011;31328;51.402;0.016;2022-12-29T10:56:09;4.03;;;0.63;;
24901;SDS011;31328;51.402;0.016;2022-12-29T10:58:51;4.45;;;0.50;;
24901;SDS011;31328;51.402;0.016;2022-12-29T11:01:23;2.13;;;0.30;;
24901;SDS011;31328;51.402;0.016;2022-12-29T11:04:21;4.43;;;1.33;;
24901;SDS011;31328;51.402;0.016;2022-12-29T11:07:04;5.17;;;0.90;;
24901;SDS011;31328;51.402;0.016;2022-12-29T11:09:32;2.23;;;0.70;;
24901;SDS011;31328;51.402;0.016;2022-12-29T11:17:56;3.17;;;0.57;;
24901;SDS011;31328;51.402;0.016;2022-12-29T11:20:28;5.53;;;0.57;;
24901;SDS011;31328;51.402;0.016;2022-12-29T11:22:59;4.87;;;0.70;;
24901;SDS011;31328;51.402;0.016;2022-12-29T11:25:26;2.17;;;0.47;;
24901;SDS011;31328;51.402;0.016;2022-12-29T11:30:24;2.27;;;0.80;;
24901;SDS011;31328;51.402;0.016;2022-12-29T11:32:52;6.00;;;0.77;;
24901;SDS011;31328;51.402;0.016;2022-12-29T11:38:19;4.10;;;0.60;;
24901;SDS011;31328;51.402;0.016;2022-12-29T11:40:48;6.17;;;0.83;;
24901;SDS011;31328;51.402;0.016;2022-12-29T11:43:21;3.20;;;0.80;;
24901;SDS011;31328;51.402;0.016;2022-12-29T11:45:52;3.47;;;0.70;;
24901;SDS011;31328;51.402;0.016;2022-12-29T11:48:20;4.20;;;0.73;;
24901;SDS011;31328;51.402;0.016;2022-12-29T11:50:51;2.80;;;0.50;;
24901;SDS011;31328;51.402;0.016;2022-12-29T11:53:23;3.63;;;0.97;;
24901;SDS011;31328;51.402;0.016;2022-12-29T11:55:56;3.47;;;0.97;;
24901;SDS011;31328;51.402;0.016;2022-12-29T11:58:29;3.17;;;0.77;;
24901;SDS011;31328;51.402;0.016;2022-12-29T12:01:02;5.60;;;0.90;;
24901;SDS011;31328;51.402;0.016;2022-12-29T12:03:35;3.70;;;0.60;;
24901;SDS011;31328;51.402;0.016;2022-12-29T12:06:07;3.37;;;0.90;;
24901;SDS011;31328;51.402;0.016;2022-12-29T12:11:15;6.73;;;1.20;;
24901;SDS011;31328;51.402;0.016;2022-12-29T12:16:21;3.53;;;0.80;;
24901;SDS011;31328;51.402;0.016;2022-12-29T12:18:57;5.20;;;1.13;;
24901;SDS011;31328;51.402;0.016;2022-12-29T12:21:34;4.50;;;1.43;;
24901;SDS011;31328;51.402;0.016;2022-12-29T12:24:18;5.43;;;1.43;;
24901;SDS011;31328;51.402;0.016;2022-12-29T12:27:14;6.83;;;2.03;;
24901;SDS011;31328;51.402;0.016;2022-12-29T12:32:50;4.43;;;1.30;;
24901;SDS011;31328;51.402;0.016;2022-12-29T12:35:47;7.93;;;2.20;;
24901;SDS011;31328;51.402;0.016;2022-12-29T12:41:16;5.97;;;1.13;;
24901;SDS011;31328;51.402;0.016;2022-12-29T12:57:22;6.83;;;1.40;;
24901;SDS011;31328;51.402;0.016;2022-12-29T13:00:16;4.20;;;0.87;;
24901;SDS011;31328;51.402;0.016;2022-12-29T13:11:10;9.60;;;2.43;;
24901;SDS011;31328;51.402;0.016;2022-12-29T13:16:40;4.97;;;1.73;;
24901;SDS011;31328;51.402;0.016;2022-12-29T13:22:15;7.07;;;1.80;;
24901;SDS011;31328;51.402;0.016;2022-12-29T13:24:57;5.83;;;1.40;;
24901;SDS011;31328;51.402;0.016;2022-12-29T13:27:44;4.63;;;1.17;;
24901;SDS011;31328;51.402;0.016;2022-12-29T13:30:22;9.47;;;1.50;;
24901;SDS011;31328;51.402;0.016;2022-12-29T13:35:54;4.37;;;1.37;;
24901;SDS011;31328;51.402;0.016;2022-12-29T13:38:37;12.17;;;1.83;;
24901;SDS011;31328;51.402;0.016;2022-12-29T13:41:07;11.17;;;1.73;;
24901;SDS011;31328;51.402;0.016;2022-12-29T13:43:38;6.27;;;1.33;;
24901;SDS011;31328;51.402;0.016;2022-12-29T13:46:09;9.83;;;2.20;;
24901;SDS011;31328;51.402;0.016;2022-12-29T13:48:42;9.77;;;3.20;;
24901;SDS011;31328;51.402;0.016;2022-12-29T13:51:15;8.97;;;2.10;;
24901;SDS011;31328;51.402;0.016;2022-12-29T13:53:57;10.17;;;2.50;;
24901;SDS011;31328;51.402;0.016;2022-12-29T14:02:30;6.07;;;1.40;;
24901;SDS011;31328;51.402;0.016;2022-12-29T14:04:58;6.23;;;2.40;;
24901;SDS011;31328;51.402;0.016;2022-12-29T14:07:25;7.23;;;1.30;;
24901;SDS011;31328;51.402;0.016;2022-12-29T14:09:53;6.00;;;1.40;;
24901;SDS011;31328;51.402;0.016;2022-12-29T14:12:22;8.27;;;1.63;;
24901;SDS011;31328;51.402;0.016;2022-12-29T14:17:44;7.23;;;1.50;;
24901;SDS011;31328;51.402;0.016;2022-12-29T14:20:25;8.10;;;2.37;;
24901;SDS011;31328;51.402;0.016;2022-12-29T14:22:55;3.37;;;1.03;;
24901;SDS011;31328;51.402;0.016;2022-12-29T14:28:24;8.03;;;1.40;;
24901;SDS011;31328;51.402;0.016;2022-12-29T14:30:56;5.80;;;1.80;;
24901;SDS011;31328;51.402;0.016;2022-12-29T14:33:27;4.70;;;1.00;;
24901;SDS011;31328;51.402;0.016;2022-12-29T14:35:56;5.63;;;1.10;;
24901;SDS011;31328;51.402;0.016;2022-12-29T14:38:46;10.93;;;1.50;;
24901;SDS011;31328;51.402;0.016;2022-12-29T14:41:24;7.90;;;1.67;;
24901;SDS011;31328;51.402;0.016;2022-12-29T14:49:16;7.50;;;2.47;;
24901;SDS011;31328;51.402;0.016;2022-12-29T14:51:46;5.43;;;1.10;;
24901;SDS011;31328;51.402;0.016;2022-12-29T14:56:59;8.97;;;2.23;;
24901;SDS011;31328;51.402;0.016;2022-12-29T14:59:29;24.00;;;3.50;;
24901;SDS011;31328;51.402;0.016;2022-12-29T15:01:58;5.70;;;1.50;;
24901;SDS011;31328;51.402;0.016;2022-12-29T15:04:33;8.93;;;2.13;;
24901;SDS011;31328;51.402;0.016;2022-12-29T15:07:01;9.23;;;1.90;;
24901;SDS011;31328;51.402;0.016;2022-12-29T15:09:37;4.47;;;1.43;;
24901;SDS011;31328;51.402;0.016;2022-12-29T15:12:14;5.47;;;1.40;;
24901;SDS011;31328;51.402;0.016;2022-12-29T15:14:52;4.33;;;1.60;;
24901;SDS011;31328;51.402;0.016;2022-12-29T15:17:27;5.47;;;2.33;;
24901;SDS011;31328;51.402;0.016;2022-12-29T15:19:56;7.20;;;1.27;;
24901;SDS011;31328;51.402;0.016;2022-12-29T15:22:24;4.23;;;1.63;;
24901;SDS011;31328;51.402;0.016;2022-12-29T15:24:52;4.67;;;1.80;;
24901;SDS011;31328;51.402;0.016;2022-12-29T15:27:23;5.13;;;1.30;;
24901;SDS011;31328;51.402;0.016;2022-12-29T15:29:55;7.77;;;2.30;;
24901;SDS011;31328;51.402;0.016;2022-12-29T15:32:38;8.20;;;2.10;;
24901;SDS011;31328;51.402;0.016;2022-12-29T15:35:22;5.97;;;1.10;;
24901;SDS011;31328;51.402;0.016;2022-12-29T15:37:58;7.07;;;1.40;;
24901;SDS011;31328;51.402;0.016;2022-12-29T15:45:33;10.47;;;1.87;;
24901;SDS011;31328;51.402;0.016;2022-12-29T15:48:01;10.20;;;2.10;;
24901;SDS011;31328;51.402;0.016;2022-12-29T15:50:30;7.30;;;1.63;;
24901;SDS011;31328;51.402;0.016;2022-12-29T15:53:01;6.53;;;1.90;;
24901;SDS011;31328;51.402;0.016;2022-12-29T15:55:32;6.00;;;1.47;;
24901;SDS011;31328;51.402;0.016;2022-12-29T15:58:02;4.70;;;2.27;;
24901;SDS011;31328;51.402;0.016;2022-12-29T16:00:34;8.03;;;1.90;;
24901;SDS011;31328;51.402;0.016;2022-12-29T16:03:03;8.27;;;1.77;;
24901;SDS011;31328;51.402;0.016;2022-12-29T16:05:32;6.20;;;1.83;;
24901;SDS011;31328;51.402;0.016;2022-12-29T16:08:15;10.60;;;1.60;;
24901;SDS011;31328;51.402;0.016;2022-12-29T16:10:46;8.73;;;1.30;;
24901;SDS011;31328;51.402;0.016;2022-12-29T16:13:18;6.13;;;1.30;;
24901;SDS011;31328;51.402;0.016;2022-12-29T16:15:52;6.33;;;1.30;;
24901;SDS011;31328;51.402;0.016;2022-12-29T16:18:30;7.60;;;1.57;;
24901;SDS011;31328;51.402;0.016;2022-12-29T16:23:28;7.60;;;2.07;;
24901;SDS011;31328;51.402;0.016;2022-12-29T16:25:56;5.97;;;1.33;;
24901;SDS011;31328;51.402;0.016;2022-12-29T16:28:26;9.90;;;1.97;;
24901;SDS011;31328;51.402;0.016;2022-12-29T16:31:05;5.77;;;1.33;;
24901;SDS011;31328;51.402;0.016;2022-12-29T16:33:37;7.93;;;1.53;;
24901;SDS011;31328;51.402;0.016;2022-12-29T16:36:23;8.10;;;1.73;;
24901;SDS011;31328;51.402;0.016;2022-12-29T16:39:02;5.00;;;1.77;;
24901;SDS011;31328;51.402;0.016;2022-12-29T16:41:49;7.80;;;2.63;;
24901;SDS011;31328;51.402;0.016;2022-12-29T16:44:23;6.23;;;1.60;;
24901;SDS011;31328;51.402;0.016;2022-12-29T16:46:57;9.20;;;1.80;;
24901;SDS011;31328;51.402;0.016;2022-12-29T16:49:23;11.37;;;1.83;;
24901;SDS011;31328;51.402;0.016;2022-12-29T16:51:51;8.30;;;1.63;;
24901;SDS011;31328;51.402;0.016;2022-12-29T16:54:32;9.03;;;2.20;;
24901;SDS011;31328;51.402;0.016;2022-12-29T16:57:01;7.50;;;2.13;;
24901;SDS011;31328;51.402;0.016;2022-12-29T16:59:32;7.27;;;1.40;;
24901;SDS011;31328;51.402;0.016;2022-12-29T17:02:05;5.83;;;1.90;;
24901;SDS011;31328;51.402;0.016;2022-12-29T17:04:37;7.60;;;1.40;;
24901;SDS011;31328;51.402;0.016;2022-12-29T17:07:07;5.20;;;1.37;;
24901;SDS011;31328;51.402;0.016;2022-12-29T17:09:44;8.03;;;1.83;;
24901;SDS011;31328;51.402;0.016;2022-12-29T17:12:15;6.17;;;1.80;;
24901;SDS011;31328;51.402;0.016;2022-12-29T17:19:42;8.43;;;1.40;;
24901;SDS011;31328;51.402;0.016;2022-12-29T17:22:12;6.10;;;1.90;;
24901;SDS011;31328;51.402;0.016;2022-12-29T17:24:47;5.83;;;1.80;;
24901;SDS011;31328;51.402;0.016;2022-12-29T17:27:33;5.53;;;1.27;;
24901;SDS011;31328;51.402;0.016;2022-12-29T17:30:13;9.03;;;1.73;;
24901;SDS011;31328;51.402;0.016;2022-12-29T17:32:42;6.03;;;1.80;;
24901;SDS011;31328;51.402;0.016;2022-12-29T17:35:18;7.17;;;1.80;;
24901;SDS011;31328;51.402;0.016;2022-12-29T17:37:47;4.20;;;1.77;;
24901;SDS011;31328;51.402;0.016;2022-12-29T17:40:15;5.77;;;1.43;;
24901;SDS011;31328;51.402;0.016;2022-12-29T17:42:47;9.80;;;2.10;;
24901;SDS011;31328;51.402;0.016;2022-12-29T17:45:19;7.40;;;1.80;;
24901;SDS011;31328;51.402;0.016;2022-12-29T17:47:47;7.13;;;2.17;;